createdAt,value
2019-02-12T00:00:30.412Z,5.40
2019-02-12T00:02:58.747Z,5.30
2019-02-12T00:05:27.004Z,5.30
2019-02-12T00:07:55.266Z,5.30
2019-02-12T00:10:23.523Z,5.30
2019-02-12T00:12:51.801Z,5.30
2019-02-12T00:15:20.056Z,5.20
2019-02-12T00:17:48.323Z,5.20
2019-02-12T00:20:16.648Z,5.20
2019-02-12T00:22:44.946Z,5.20
2019-02-12T00:25:13.213Z,5.10
2019-02-12T00:27:43.503Z,5.10
2019-02-12T00:30:11.533Z,5.10
2019-02-12T00:32:39.862Z,5.10
2019-02-12T00:35:08.127Z,5.10
2019-02-12T00:37:36.789Z,5.20
2019-02-12T00:40:07.328Z,5.20
2019-02-12T00:42:35.582Z,5.20
2019-02-12T00:45:04.964Z,5.20
2019-02-12T00:47:33.309Z,5.20
2019-02-12T00:50:01.641Z,5.20
2019-02-12T00:52:29.936Z,5.30
2019-02-12T00:54:58.184Z,5.30
2019-02-12T00:57:26.445Z,5.30
2019-02-12T00:59:54.712Z,5.40
2019-02-12T01:02:22.966Z,5.40
2019-02-12T01:04:51.228Z,5.50
2019-02-12T01:07:19.497Z,5.40
2019-02-12T01:09:47.768Z,5.50
2019-02-12T01:12:16.015Z,5.50
2019-02-12T01:14:44.286Z,5.50
2019-02-12T01:17:12.588Z,5.50
2019-02-12T01:19:40.889Z,5.60
2019-02-12T01:22:09.188Z,5.60
2019-02-12T01:24:37.547Z,5.60
2019-02-12T01:27:05.801Z,5.60
2019-02-12T01:29:34.047Z,5.60
2019-02-12T01:32:02.327Z,5.60
2019-02-12T01:34:30.586Z,5.70
2019-02-12T01:36:58.835Z,5.70
2019-02-12T01:39:27.112Z,5.70
2019-02-12T01:41:55.355Z,5.70
2019-02-12T01:44:23.656Z,5.70
2019-02-12T01:46:51.911Z,5.80
2019-02-12T01:49:20.163Z,5.80
2019-02-12T01:51:48.432Z,5.80
2019-02-12T01:54:16.692Z,5.80
2019-02-12T01:56:44.998Z,5.80
2019-02-12T01:59:13.279Z,5.70
2019-02-12T02:01:54.073Z,5.70
2019-02-12T02:04:21.682Z,5.70
2019-02-12T02:06:49.939Z,5.70
2019-02-12T02:09:18.211Z,5.60
2019-02-12T02:11:46.463Z,5.60
2019-02-12T02:14:14.763Z,5.60
2019-02-12T02:16:43.019Z,5.60
2019-02-12T02:19:11.306Z,5.60
2019-02-12T02:21:44.048Z,5.60
2019-02-12T02:24:09.630Z,5.60
2019-02-12T02:26:37.884Z,5.60
2019-02-12T02:29:06.155Z,5.60
2019-02-12T02:31:34.430Z,5.60
2019-02-12T02:34:02.770Z,5.70
2019-02-12T02:36:31.039Z,5.60
2019-02-12T02:38:59.291Z,5.70
2019-02-12T02:41:27.546Z,5.70
2019-02-12T02:43:55.814Z,5.70
2019-02-12T02:46:24.065Z,5.70
2019-02-12T02:48:52.345Z,5.70
2019-02-12T02:51:20.598Z,5.70
2019-02-12T02:53:48.862Z,5.70
2019-02-12T02:56:17.159Z,5.70
2019-02-12T02:58:45.412Z,5.70
2019-02-12T03:01:13.663Z,5.70
2019-02-12T03:03:41.929Z,5.70
2019-02-12T03:06:10.230Z,5.70
2019-02-12T03:08:38.485Z,5.70
2019-02-12T03:11:06.784Z,5.80
2019-02-12T03:13:35.043Z,5.80
2019-02-12T03:16:03.294Z,5.80
2019-02-12T03:18:31.588Z,5.80
2019-02-12T03:20:59.854Z,5.70
2019-02-12T03:23:28.284Z,5.70
2019-02-12T03:25:56.548Z,5.70
2019-02-12T03:28:24.806Z,5.70
2019-02-12T03:30:53.133Z,5.70
2019-02-12T03:33:21.455Z,5.70
2019-02-12T03:35:49.765Z,5.70
2019-02-12T03:38:18.057Z,5.70
2019-02-12T03:40:46.376Z,5.70
2019-02-12T03:43:14.652Z,5.70
2019-02-12T03:45:42.909Z,5.70
2019-02-12T03:48:11.209Z,5.70
2019-02-12T03:50:39.524Z,5.70
2019-02-12T03:53:07.798Z,5.70
2019-02-12T03:55:36.052Z,5.70
2019-02-12T03:58:04.651Z,5.70
2019-02-12T04:00:32.909Z,5.70
2019-02-12T04:03:06.126Z,5.70
2019-02-12T04:05:35.686Z,5.70
2019-02-12T04:08:04.388Z,5.70
2019-02-12T04:10:32.653Z,5.70
2019-02-12T04:13:00.938Z,5.70
2019-02-12T04:15:29.272Z,5.70
2019-02-12T04:17:57.536Z,5.70
2019-02-12T04:20:25.851Z,5.70
2019-02-12T04:22:54.132Z,5.70
2019-02-12T04:25:22.407Z,5.60
2019-02-12T04:28:10.107Z,5.60
2019-02-12T04:30:38.358Z,5.60
2019-02-12T04:33:06.666Z,5.60
2019-02-12T04:35:34.915Z,5.50
2019-02-12T04:38:03.169Z,5.50
2019-02-12T04:40:31.431Z,5.50
2019-02-12T04:42:59.685Z,5.50
2019-02-12T04:45:27.967Z,5.50
2019-02-12T04:47:56.246Z,5.50
2019-02-12T04:50:24.526Z,5.40
2019-02-12T04:52:52.779Z,5.40
2019-02-12T04:55:21.056Z,5.40
2019-02-12T04:57:49.307Z,5.30
2019-02-12T05:00:18.408Z,5.30
2019-02-12T05:02:46.667Z,5.30
2019-02-12T05:05:14.926Z,5.30
2019-02-12T05:07:43.191Z,5.30
2019-02-12T05:10:14.964Z,5.30
2019-02-12T05:12:43.228Z,5.20
2019-02-12T05:15:11.726Z,5.20
2019-02-12T05:17:39.976Z,5.20
2019-02-12T05:20:13.732Z,5.20
2019-02-12T05:22:43.861Z,5.20
2019-02-12T05:25:11.989Z,5.20
2019-02-12T05:27:40.255Z,5.10
2019-02-12T05:30:13.599Z,5.20
2019-02-12T05:32:41.858Z,5.20
2019-02-12T05:35:10.119Z,5.20
2019-02-12T05:37:38.418Z,5.20
2019-02-12T05:40:08.984Z,5.30
2019-02-12T05:42:37.254Z,5.30
2019-02-12T05:45:11.500Z,5.40
2019-02-12T05:47:39.805Z,5.40
2019-02-12T05:50:10.900Z,5.40
2019-02-12T05:52:39.162Z,5.50
2019-02-12T05:55:07.426Z,5.50
2019-02-12T05:57:35.703Z,5.50
2019-02-12T06:00:06.840Z,5.50
2019-02-12T06:02:35.107Z,5.60
2019-02-12T06:05:03.863Z,5.60
2019-02-12T06:07:32.191Z,5.70
2019-02-12T06:10:00.451Z,5.70
2019-02-12T06:12:28.715Z,5.70
2019-02-12T06:14:57.000Z,5.80
2019-02-12T06:17:25.347Z,5.80
2019-02-12T06:19:53.595Z,5.80
2019-02-12T06:22:21.884Z,5.90
2019-02-12T06:24:50.140Z,5.90
2019-02-12T06:27:18.400Z,5.90
2019-02-12T06:29:46.665Z,6.00
2019-02-12T06:32:14.971Z,5.90
2019-02-12T06:34:43.254Z,6.00
2019-02-12T06:37:11.603Z,6.00
2019-02-12T06:39:39.862Z,6.00
2019-02-12T06:42:08.111Z,6.00
2019-02-12T06:44:36.392Z,6.00
2019-02-12T06:47:04.740Z,6.00
2019-02-12T06:49:32.990Z,6.00
2019-02-12T06:52:01.251Z,6.00
2019-02-12T06:54:29.520Z,6.00
2019-02-12T06:56:57.808Z,6.00
2019-02-12T06:59:26.084Z,6.00
2019-02-12T07:01:57.591Z,6.00
2019-02-12T07:04:25.859Z,6.00
2019-02-12T07:07:03.515Z,6.00
2019-02-12T07:09:35.047Z,6.10
2019-02-12T07:12:18.332Z,6.10
2019-02-12T07:14:55.458Z,6.00
2019-02-12T07:17:41.949Z,6.00
2019-02-12T07:20:37.388Z,6.00
2019-02-12T07:23:21.363Z,6.00
2019-02-12T07:25:59.891Z,5.90
2019-02-12T07:28:46.416Z,5.90
2019-02-12T07:31:34.708Z,5.90
2019-02-12T07:34:08.831Z,5.80
2019-02-12T07:37:04.773Z,5.80
2019-02-12T07:39:54.121Z,5.80
2019-02-12T07:42:49.268Z,5.80
2019-02-12T07:45:48.816Z,5.80
2019-02-12T07:48:36.463Z,5.80
2019-02-12T07:51:13.814Z,5.80
2019-02-12T07:53:48.290Z,5.70
2019-02-12T07:56:34.702Z,5.70
2019-02-12T07:59:12.173Z,5.70
2019-02-12T08:02:06.151Z,5.70
2019-02-12T08:04:46.016Z,5.70
2019-02-12T08:07:26.173Z,5.70
2019-02-12T08:10:00.307Z,5.70
2019-02-12T08:12:31.856Z,5.70
2019-02-12T08:15:11.750Z,5.70
2019-02-12T08:17:58.088Z,5.80
2019-02-12T08:20:58.244Z,5.80
2019-02-12T08:23:46.107Z,5.90
2019-02-12T08:26:20.462Z,5.90
2019-02-12T08:28:57.671Z,5.90
2019-02-12T08:31:47.516Z,6.00
2019-02-12T08:34:35.520Z,6.00
2019-02-12T08:37:10.029Z,6.10
2019-02-12T08:39:50.046Z,6.20
2019-02-12T08:42:48.569Z,6.20
2019-02-12T08:45:50.218Z,6.30
2019-02-12T08:48:24.424Z,6.40
2019-02-12T08:51:30.935Z,6.50
2019-02-12T08:54:02.463Z,6.60
2019-02-12T08:56:54.999Z,6.80
2019-02-12T08:59:29.472Z,6.90
2019-02-12T09:02:01.051Z,7.00
2019-02-12T09:04:53.749Z,7.10
2019-02-12T09:07:27.723Z,7.20
2019-02-12T09:10:02.198Z,7.30
2019-02-12T09:12:48.944Z,7.40
2019-02-12T09:15:28.695Z,7.50
2019-02-12T09:18:15.243Z,7.60
2019-02-12T09:20:49.663Z,7.70
2019-02-12T09:23:29.585Z,7.80
2019-02-12T09:26:25.068Z,7.90
2019-02-12T09:29:05.143Z,8.00
2019-02-12T09:31:42.116Z,8.10
2019-02-12T09:34:32.751Z,8.10
2019-02-12T09:37:23.339Z,8.10
2019-02-12T09:40:18.958Z,8.20
2019-02-12T09:42:51.831Z,8.20
2019-02-12T09:45:39.530Z,8.10
2019-02-12T09:48:19.813Z,8.00
2019-02-12T09:50:56.733Z,7.90
2019-02-12T09:53:40.191Z,7.80
2019-02-12T09:56:23.286Z,7.60
2019-02-12T09:58:57.526Z,7.50
2019-02-12T10:01:46.702Z,7.30
2019-02-12T10:04:18.258Z,7.10
2019-02-12T10:06:49.782Z,7.00
2019-02-12T10:09:37.927Z,6.90
2019-02-12T10:12:15.228Z,6.90
2019-02-12T10:15:06.363Z,6.90
2019-02-12T10:17:37.937Z,7.10
2019-02-12T10:20:55.993Z,7.30
2019-02-12T10:23:54.753Z,7.50
2019-02-12T10:26:31.412Z,7.70
2019-02-12T10:29:18.090Z,7.90
2019-02-12T10:31:45.459Z,8.20
2019-02-12T10:34:13.727Z,8.30
2019-02-12T10:36:41.974Z,8.60
2019-02-12T10:39:10.859Z,8.80
2019-02-12T10:41:39.119Z,9.00
2019-02-12T10:44:07.389Z,9.10
2019-02-12T10:46:35.660Z,9.30
2019-02-12T10:49:03.931Z,9.50
2019-02-12T10:51:32.216Z,9.50
2019-02-12T10:54:00.511Z,9.60
2019-02-12T10:56:28.800Z,9.60
2019-02-12T10:58:57.048Z,9.60
2019-02-12T11:01:25.331Z,9.50
2019-02-12T11:03:53.591Z,9.60
2019-02-12T11:06:21.891Z,9.60
2019-02-12T11:08:50.140Z,9.60
2019-02-12T11:11:18.412Z,9.60
2019-02-12T11:13:46.675Z,9.60
2019-02-12T11:16:14.951Z,9.60
2019-02-12T11:18:43.227Z,9.70
2019-02-12T11:21:12.135Z,9.70
2019-02-12T11:23:40.865Z,9.70
2019-02-12T11:26:09.132Z,9.80
2019-02-12T11:28:37.746Z,9.80
2019-02-12T11:31:06.024Z,9.80
2019-02-12T11:33:34.311Z,9.80
2019-02-12T11:36:02.572Z,9.80
2019-02-12T11:38:30.822Z,9.70
2019-02-12T11:40:59.095Z,9.70
2019-02-12T11:43:27.433Z,9.70
2019-02-12T11:45:55.683Z,9.60
2019-02-12T11:48:24.236Z,9.60
2019-02-12T11:50:52.530Z,9.60
2019-02-12T11:53:20.859Z,9.60
2019-02-12T11:55:49.107Z,9.60
2019-02-12T11:58:18.252Z,9.70
2019-02-12T12:00:48.142Z,9.70
2019-02-12T12:03:16.431Z,9.80
2019-02-12T12:05:44.766Z,9.80
2019-02-12T12:08:13.020Z,9.90
2019-02-12T12:10:41.291Z,10.10
2019-02-12T12:13:09.551Z,10.20
2019-02-12T12:15:37.821Z,10.30
2019-02-12T12:18:06.075Z,10.40
2019-02-12T12:20:34.357Z,10.50
2019-02-12T12:23:02.619Z,10.60
2019-02-12T12:25:30.926Z,10.70
2019-02-12T12:27:59.184Z,10.80
2019-02-12T12:30:27.449Z,10.80
2019-02-12T12:32:56.543Z,10.90
2019-02-12T12:35:24.927Z,11.00
2019-02-12T12:37:53.211Z,11.00
2019-02-12T12:40:21.463Z,11.00
2019-02-12T12:42:49.776Z,11.00
2019-02-12T12:45:18.099Z,10.90
2019-02-12T12:47:46.359Z,10.80
2019-02-12T12:50:14.632Z,10.80
2019-02-12T12:52:42.886Z,10.80
2019-02-12T12:55:11.458Z,10.80
2019-02-12T12:57:41.794Z,10.90
2019-02-12T13:00:12.615Z,10.90
2019-02-12T13:02:40.871Z,11.00
2019-02-12T13:05:11.018Z,11.10
2019-02-12T13:07:38.971Z,11.20
2019-02-12T13:10:10.705Z,11.30
2019-02-12T13:12:39.054Z,11.30
2019-02-12T13:15:09.863Z,11.40
2019-02-12T13:17:38.114Z,11.50
2019-02-12T13:20:09.650Z,11.60
2019-02-12T13:22:37.929Z,11.70
2019-02-12T13:25:08.845Z,11.80
2019-02-12T13:27:36.799Z,11.80
2019-02-12T13:30:08.354Z,11.90
2019-02-12T13:32:36.603Z,12.00
2019-02-12T13:35:06.113Z,11.90
2019-02-12T13:37:34.378Z,11.90
2019-02-12T13:40:03.518Z,11.80
2019-02-12T13:42:31.798Z,11.70
2019-02-12T13:45:00.095Z,11.60
2019-02-12T13:47:28.830Z,11.50
2019-02-12T13:49:57.082Z,11.40
2019-02-12T13:52:25.346Z,11.30
2019-02-12T13:54:53.607Z,11.10
2019-02-12T13:57:21.907Z,11.00
2019-02-12T13:59:50.153Z,10.90
2019-02-12T14:02:18.427Z,10.80
2019-02-12T14:04:47.858Z,10.60
2019-02-12T14:07:16.159Z,10.60
2019-02-12T14:09:44.414Z,10.60
2019-02-12T14:12:12.662Z,10.50
2019-02-12T14:14:40.939Z,10.50
2019-02-12T14:17:09.195Z,10.50
2019-02-12T14:19:37.463Z,10.40
2019-02-12T14:22:05.748Z,10.40
2019-02-12T14:24:34.012Z,10.40
2019-02-12T14:27:02.266Z,10.30
2019-02-12T14:29:30.613Z,10.30
2019-02-12T14:31:58.894Z,10.30
2019-02-12T14:34:27.165Z,10.30
2019-02-12T14:36:55.431Z,10.20
2019-02-12T14:39:23.682Z,10.20
2019-02-12T14:41:51.978Z,10.20
2019-02-12T14:44:20.279Z,10.20
2019-02-12T14:46:48.530Z,10.20
2019-02-12T14:49:16.790Z,10.20
2019-02-12T14:51:45.060Z,10.20
2019-02-12T14:54:13.315Z,10.30
2019-02-12T14:56:41.570Z,10.30
2019-02-12T14:59:09.849Z,10.30
2019-02-12T15:01:38.102Z,10.20
2019-02-12T15:04:06.366Z,10.20
2019-02-12T15:06:34.634Z,10.20
2019-02-12T15:09:03.278Z,10.20
2019-02-12T15:11:31.534Z,10.10
2019-02-12T15:13:59.802Z,10.10
2019-02-12T15:16:28.055Z,10.10
2019-02-12T15:18:56.347Z,10.00
2019-02-12T15:21:24.595Z,10.00
2019-02-12T15:23:52.844Z,9.90
2019-02-12T15:26:21.131Z,9.90
2019-02-12T15:28:51.037Z,9.90
2019-02-12T15:31:19.372Z,9.80
2019-02-12T15:33:47.670Z,9.80
2019-02-12T15:36:15.938Z,9.70
2019-02-12T15:38:44.264Z,9.70
2019-02-12T15:41:12.555Z,9.70
2019-02-12T15:43:40.810Z,9.60
2019-02-12T15:46:09.068Z,9.60
2019-02-12T15:48:37.330Z,9.50
2019-02-12T15:51:05.622Z,9.50
2019-02-12T15:53:33.867Z,9.50
2019-02-12T15:56:02.120Z,9.40
2019-02-12T15:58:30.442Z,9.40
2019-02-12T16:00:58.718Z,9.40
2019-02-12T16:03:27.038Z,9.40
2019-02-12T16:05:57.155Z,9.30
2019-02-12T16:08:25.319Z,9.30
2019-02-12T16:10:55.044Z,9.30
2019-02-12T16:13:23.554Z,9.30
2019-02-12T16:15:51.827Z,9.30
2019-02-12T16:18:21.383Z,9.30
2019-02-12T16:20:50.095Z,9.20
2019-02-12T16:23:18.361Z,9.20
2019-02-12T16:25:46.630Z,9.20
2019-02-12T16:28:14.902Z,9.20
2019-02-12T16:30:43.171Z,9.20
2019-02-12T16:33:11.428Z,9.20
2019-02-12T16:35:39.695Z,9.20
2019-02-12T16:38:07.946Z,9.20
2019-02-12T16:40:36.217Z,9.20
2019-02-12T16:43:04.480Z,9.10
2019-02-12T16:45:36.003Z,9.10
2019-02-12T16:48:04.276Z,9.10
2019-02-12T16:50:32.628Z,9.10
2019-02-12T16:53:01.280Z,9.10
2019-02-12T16:55:29.541Z,9.00
2019-02-12T16:57:57.887Z,9.00
2019-02-12T17:00:26.215Z,9.00
2019-02-12T17:02:54.491Z,8.90
2019-02-12T17:05:22.744Z,8.90
2019-02-12T17:07:51.015Z,8.80
2019-02-12T17:10:19.279Z,8.80
2019-02-12T17:12:47.546Z,8.70
2019-02-12T17:15:15.817Z,8.70
2019-02-12T17:17:44.079Z,8.70
2019-02-12T17:20:15.590Z,8.60
2019-02-12T17:22:43.856Z,8.50
2019-02-12T17:25:12.190Z,8.50
2019-02-12T17:27:40.526Z,8.50
2019-02-12T17:30:16.561Z,8.40
2019-02-12T17:32:44.840Z,8.40
2019-02-12T17:35:13.212Z,8.40
2019-02-12T17:37:41.536Z,8.40
2019-02-12T17:40:18.011Z,8.40
2019-02-12T17:42:46.295Z,8.40
2019-02-12T17:45:15.573Z,8.40
2019-02-12T17:47:43.827Z,8.30
2019-02-12T17:50:15.678Z,8.30
2019-02-12T17:52:43.939Z,8.30
2019-02-12T17:55:12.198Z,8.20
2019-02-12T17:57:40.468Z,8.20
2019-02-12T18:00:32.598Z,8.20
2019-02-12T18:03:00.854Z,8.20
2019-02-12T18:05:29.130Z,8.10
2019-02-12T18:07:57.406Z,8.10
2019-02-12T18:10:25.745Z,8.10
2019-02-12T18:12:54.039Z,8.10
2019-02-12T18:15:22.295Z,8.00
2019-02-12T18:17:50.596Z,8.10
2019-02-12T18:20:26.365Z,8.00
2019-02-12T18:22:48.931Z,8.00
2019-02-12T18:25:17.187Z,8.00
2019-02-12T18:27:45.445Z,8.00
2019-02-12T18:30:15.368Z,8.00
2019-02-12T18:32:43.681Z,8.00
2019-02-12T18:35:12.020Z,8.00
2019-02-12T18:37:40.303Z,8.00
2019-02-12T18:40:13.784Z,8.00
2019-02-12T18:42:42.056Z,8.00
2019-02-12T18:45:18.806Z,8.00
2019-02-12T18:47:47.087Z,8.00
2019-02-12T18:50:15.419Z,8.00
2019-02-12T18:52:43.691Z,8.00
2019-02-12T18:55:16.018Z,8.00
2019-02-12T18:57:44.275Z,8.00
2019-02-12T19:00:17.971Z,8.00
2019-02-12T19:02:46.232Z,8.10
2019-02-12T19:05:14.511Z,8.10
2019-02-12T19:07:43.004Z,8.10
2019-02-12T19:10:13.260Z,8.10
2019-02-12T19:12:41.541Z,8.10
2019-02-12T19:15:12.903Z,8.10
2019-02-12T19:17:41.813Z,8.10
2019-02-12T19:20:12.690Z,8.10
2019-02-12T19:22:40.955Z,8.10
2019-02-12T19:25:10.703Z,8.10
2019-02-12T19:27:38.974Z,8.10
2019-02-12T19:30:16.228Z,8.10
2019-02-12T19:32:44.720Z,8.10
2019-02-12T19:35:12.968Z,8.00
2019-02-12T19:37:41.243Z,8.00
2019-02-12T19:40:12.928Z,8.00
2019-02-12T19:42:41.201Z,8.00
2019-02-12T19:45:12.367Z,8.00
2019-02-12T19:47:40.635Z,8.00
2019-02-12T19:50:09.935Z,7.90
2019-02-12T19:52:38.209Z,7.90
2019-02-12T19:55:08.218Z,7.90
2019-02-12T19:57:36.472Z,7.90
2019-02-12T20:00:09.223Z,7.90
2019-02-12T20:02:37.483Z,7.90
2019-02-12T20:05:09.042Z,7.90
2019-02-12T20:07:37.315Z,7.90
2019-02-12T20:10:08.219Z,7.90
2019-02-12T20:12:36.559Z,7.90
2019-02-12T20:15:07.969Z,7.90
2019-02-12T20:17:36.232Z,7.90
2019-02-12T20:20:07.179Z,7.90
2019-02-12T20:22:35.435Z,7.90
2019-02-12T20:25:03.780Z,7.90
2019-02-12T20:27:35.916Z,7.90
2019-02-12T20:30:02.431Z,7.90
2019-02-12T20:32:30.711Z,7.90
2019-02-12T20:34:58.967Z,7.90
2019-02-12T20:37:27.270Z,7.90
2019-02-12T20:39:55.554Z,8.00
2019-02-12T20:42:23.822Z,8.00
2019-02-12T20:44:52.083Z,8.00
2019-02-12T20:47:20.351Z,8.00
2019-02-12T20:49:48.615Z,8.00
2019-02-12T20:52:16.891Z,8.00
2019-02-12T20:54:45.179Z,8.00
2019-02-12T20:57:15.227Z,8.10
2019-02-12T20:59:43.427Z,8.00
2019-02-12T21:02:11.686Z,8.10
2019-02-12T21:04:39.972Z,8.10
2019-02-12T21:07:08.237Z,8.10
2019-02-12T21:09:36.550Z,8.10
2019-02-12T21:12:04.822Z,8.10
2019-02-12T21:14:33.105Z,8.20
2019-02-12T21:17:01.386Z,8.20
2019-02-12T21:19:29.763Z,8.20
2019-02-12T21:21:58.099Z,8.30
2019-02-12T21:24:26.362Z,8.30
2019-02-12T21:26:54.642Z,8.30
2019-02-12T21:29:22.927Z,8.30
2019-02-12T21:31:51.298Z,8.30
2019-02-12T21:34:19.632Z,8.30
2019-02-12T21:36:47.980Z,8.40
2019-02-12T21:39:17.875Z,8.40
2019-02-12T21:41:46.184Z,8.40
2019-02-12T21:44:14.443Z,8.40
2019-02-12T21:46:43.331Z,8.40
2019-02-12T21:49:11.647Z,8.40
2019-02-12T21:51:39.906Z,8.40
2019-02-12T21:54:08.206Z,8.40
2019-02-12T21:56:36.484Z,8.40
2019-02-12T21:59:04.747Z,8.30
2019-02-12T22:01:33.010Z,8.30
2019-02-12T22:04:01.290Z,8.30
2019-02-12T22:06:29.551Z,8.30
2019-02-12T22:08:57.808Z,8.30
2019-02-12T22:11:26.074Z,8.40
2019-02-12T22:13:54.338Z,8.30
2019-02-12T22:16:22.619Z,8.40
2019-02-12T22:18:50.877Z,8.40
2019-02-12T22:21:19.143Z,8.40
2019-02-12T22:23:47.448Z,8.40
2019-02-12T22:26:15.702Z,8.40
2019-02-12T22:28:43.959Z,8.40
2019-02-12T22:31:12.230Z,8.40
2019-02-12T22:33:40.495Z,8.40
2019-02-12T22:36:08.799Z,8.40
2019-02-12T22:38:37.056Z,8.30
2019-02-12T22:41:05.310Z,8.30
2019-02-12T22:43:33.611Z,8.30
2019-02-12T22:46:01.874Z,8.30
2019-02-12T22:48:30.154Z,8.30
2019-02-12T22:50:58.483Z,8.30
2019-02-12T22:53:26.810Z,8.30
2019-02-12T22:55:55.081Z,8.30
2019-02-12T22:58:23.371Z,8.30
2019-02-12T23:00:57.883Z,8.30
2019-02-12T23:03:26.218Z,8.30
2019-02-12T23:05:54.502Z,8.30
2019-02-12T23:08:22.760Z,8.30
2019-02-12T23:10:51.040Z,8.40
2019-02-12T23:13:19.311Z,8.40
2019-02-12T23:15:47.587Z,8.40
2019-02-12T23:18:15.855Z,8.40
2019-02-12T23:20:44.122Z,8.50
2019-02-12T23:23:12.383Z,8.50
2019-02-12T23:25:40.659Z,8.50
2019-02-12T23:28:08.919Z,8.50
2019-02-12T23:30:37.191Z,8.50
2019-02-12T23:33:05.467Z,8.50
2019-02-12T23:35:33.743Z,8.50
2019-02-12T23:38:02.003Z,8.50
2019-02-12T23:40:30.274Z,8.50
2019-02-12T23:42:58.568Z,8.50
2019-02-12T23:45:26.886Z,8.50
2019-02-12T23:47:55.155Z,8.50
2019-02-12T23:50:23.426Z,8.50
2019-02-12T23:52:51.709Z,8.50
2019-02-12T23:55:20.004Z,8.60
2019-02-12T23:57:48.335Z,8.60
